createdAt,value
2018-11-11T00:01:44.388Z,12.20
2018-11-11T00:04:14.617Z,12.20
2018-11-11T00:06:45.018Z,12.30
2018-11-11T00:09:15.298Z,12.20
2018-11-11T00:11:45.463Z,12.20
2018-11-11T00:14:15.888Z,12.30
2018-11-11T00:16:46.105Z,12.20
2018-11-11T00:19:16.313Z,12.30
2018-11-11T00:21:46.708Z,12.30
2018-11-11T00:24:16.883Z,12.30
2018-11-11T00:26:47.463Z,12.20
2018-11-11T00:29:18.899Z,12.30
2018-11-11T00:31:49.898Z,12.30
2018-11-11T00:34:20.472Z,12.30
2018-11-11T00:36:50.654Z,12.30
2018-11-11T00:39:21.266Z,12.30
2018-11-11T00:41:51.603Z,12.20
2018-11-11T00:44:22.060Z,12.20
2018-11-11T00:46:52.363Z,12.20
2018-11-11T00:49:22.723Z,12.20
2018-11-11T00:51:52.878Z,12.20
2018-11-11T00:54:23.308Z,12.20
2018-11-11T00:56:53.363Z,12.20
2018-11-11T00:59:23.525Z,12.20
2018-11-11T01:01:53.928Z,12.20
2018-11-11T01:04:24.821Z,12.20
2018-11-11T01:06:55.127Z,12.20
2018-11-11T01:09:25.269Z,12.20
2018-11-11T01:11:55.358Z,12.20
2018-11-11T01:14:25.507Z,12.20
2018-11-11T01:16:55.742Z,12.20
2018-11-11T01:19:25.852Z,12.20
2018-11-11T01:21:55.987Z,12.30
2018-11-11T01:24:26.164Z,12.30
2018-11-11T01:26:56.248Z,12.20
2018-11-11T01:29:26.988Z,12.30
2018-11-11T01:31:57.458Z,12.30
2018-11-11T01:34:27.548Z,12.30
2018-11-11T01:36:57.763Z,12.30
2018-11-11T01:39:28.013Z,12.30
2018-11-11T01:41:58.168Z,12.30
2018-11-11T01:44:28.363Z,12.30
2018-11-11T01:46:58.528Z,12.30
2018-11-11T01:49:28.589Z,12.20
2018-11-11T01:51:58.633Z,12.30
2018-11-11T01:54:28.733Z,12.20
2018-11-11T01:56:58.742Z,12.30
2018-11-11T01:59:29.043Z,12.20
2018-11-11T02:01:59.208Z,12.20
2018-11-11T02:04:29.619Z,12.20
2018-11-11T02:06:59.814Z,12.20
2018-11-11T02:09:29.950Z,12.20
2018-11-11T02:12:00.208Z,12.20
2018-11-11T02:14:30.448Z,12.20
2018-11-11T02:17:00.823Z,12.20
2018-11-11T02:19:31.068Z,12.20
2018-11-11T02:22:01.508Z,12.20
2018-11-11T02:24:31.838Z,12.30
2018-11-11T02:27:01.953Z,12.20
2018-11-11T02:29:32.573Z,12.20
2018-11-11T02:32:02.588Z,12.20
2018-11-11T02:34:33.188Z,12.20
2018-11-11T02:37:03.563Z,12.20
2018-11-11T02:39:33.948Z,12.20
2018-11-11T02:42:04.274Z,12.20
2018-11-11T02:44:34.473Z,12.20
2018-11-11T02:47:04.763Z,12.20
2018-11-11T02:49:34.873Z,12.20
2018-11-11T02:52:05.218Z,12.20
2018-11-11T02:54:35.428Z,12.20
2018-11-11T02:57:05.732Z,12.20
2018-11-11T02:59:35.920Z,12.10
2018-11-11T03:02:06.208Z,12.20
2018-11-11T03:04:36.475Z,12.10
2018-11-11T03:07:06.712Z,12.10
2018-11-11T03:09:36.783Z,12.20
2018-11-11T03:12:06.870Z,12.20
2018-11-11T03:14:36.938Z,12.20
2018-11-11T03:17:07.323Z,12.20
2018-11-11T03:19:37.414Z,12.20
2018-11-11T03:22:07.683Z,12.20
2018-11-11T03:24:37.623Z,12.20
2018-11-11T03:27:07.658Z,12.10
2018-11-11T03:29:37.838Z,12.10
2018-11-11T03:32:08.131Z,12.20
2018-11-11T03:34:39.153Z,12.20
2018-11-11T03:37:09.178Z,12.20
2018-11-11T03:39:39.268Z,12.10
2018-11-11T03:42:09.428Z,12.10
2018-11-11T03:44:39.578Z,12.10
2018-11-11T03:47:09.673Z,12.10
2018-11-11T03:49:39.728Z,12.10
2018-11-11T03:52:09.633Z,12.10
2018-11-11T03:54:39.906Z,12.10
2018-11-11T03:57:10.038Z,12.10
2018-11-11T03:59:40.308Z,12.10
2018-11-11T04:02:10.528Z,12.10
2018-11-11T04:04:40.542Z,12.10
2018-11-11T04:07:10.593Z,12.10
2018-11-11T04:09:40.763Z,12.10
2018-11-11T04:12:10.863Z,12.10
2018-11-11T04:14:41.113Z,12.10
2018-11-11T04:17:11.193Z,12.10
2018-11-11T04:19:41.278Z,12.10
2018-11-11T04:22:17.137Z,12.10
2018-11-11T04:24:48.847Z,12.10
2018-11-11T04:27:19.118Z,12.10
2018-11-11T04:29:49.707Z,12.10
2018-11-11T04:32:19.821Z,12.10
2018-11-11T04:34:50.272Z,12.10
2018-11-11T04:37:20.612Z,12.20
2018-11-11T04:39:50.828Z,12.20
2018-11-11T04:42:21.073Z,12.20
2018-11-11T04:44:51.349Z,12.20
2018-11-11T04:47:21.473Z,12.20
2018-11-11T04:49:51.653Z,12.20
2018-11-11T04:52:21.748Z,12.20
2018-11-11T04:54:52.068Z,12.20
2018-11-11T04:57:22.053Z,12.20
2018-11-11T04:59:52.088Z,12.20
2018-11-11T05:02:22.153Z,12.20
2018-11-11T05:04:52.324Z,12.20
2018-11-11T05:07:22.373Z,12.20
2018-11-11T05:09:52.448Z,12.20
2018-11-11T05:12:22.538Z,12.20
2018-11-11T05:14:52.753Z,12.20
2018-11-11T05:17:22.787Z,12.20
2018-11-11T05:19:52.957Z,12.20
2018-11-11T05:22:23.068Z,12.20
2018-11-11T05:24:53.184Z,12.20
2018-11-11T05:27:23.348Z,12.20
2018-11-11T05:29:53.469Z,12.20
2018-11-11T05:32:23.603Z,12.20
2018-11-11T05:34:53.503Z,12.20
2018-11-11T05:37:23.536Z,12.20
2018-11-11T05:39:53.573Z,12.20
2018-11-11T05:42:23.633Z,12.20
2018-11-11T05:44:53.582Z,12.20
2018-11-11T05:47:23.649Z,12.20
2018-11-11T05:49:53.621Z,12.20
2018-11-11T05:52:23.933Z,12.20
2018-11-11T05:54:54.093Z,12.20
2018-11-11T05:57:24.067Z,12.20
2018-11-11T05:59:54.138Z,12.20
2018-11-11T06:02:24.212Z,12.20
2018-11-11T06:04:54.347Z,12.30
2018-11-11T06:07:24.461Z,12.20
2018-11-11T06:09:54.713Z,12.20
2018-11-11T06:12:24.620Z,12.20
2018-11-11T06:14:54.908Z,12.20
2018-11-11T06:17:25.088Z,12.20
2018-11-11T06:19:55.163Z,12.30
2018-11-11T06:22:25.203Z,12.30
2018-11-11T06:24:55.730Z,12.30
2018-11-11T06:27:25.943Z,12.30
2018-11-11T06:29:56.113Z,12.30
2018-11-11T06:32:26.148Z,12.30
2018-11-11T06:34:56.303Z,12.30
2018-11-11T06:37:26.348Z,12.30
2018-11-11T06:39:56.713Z,12.30
2018-11-11T06:42:26.772Z,12.30
2018-11-11T06:44:56.933Z,12.30
2018-11-11T06:47:26.873Z,12.40
2018-11-11T06:49:57.155Z,12.40
2018-11-11T06:52:27.409Z,12.40
2018-11-11T06:54:57.484Z,12.40
2018-11-11T06:57:27.603Z,12.40
2018-11-11T06:59:57.643Z,12.40
2018-11-11T07:02:38.393Z,12.40
2018-11-11T07:05:09.683Z,12.40
2018-11-11T07:07:41.037Z,12.40
2018-11-11T07:10:11.298Z,12.50
2018-11-11T07:12:41.513Z,12.50
2018-11-11T07:15:11.598Z,12.50
2018-11-11T07:17:42.283Z,12.50
2018-11-11T07:20:12.684Z,12.50
2018-11-11T07:22:43.253Z,12.50
2018-11-11T07:25:13.808Z,12.50
2018-11-11T07:27:44.095Z,12.50
2018-11-11T07:30:14.493Z,12.50
2018-11-11T07:32:44.798Z,12.50
2018-11-11T07:35:15.106Z,12.50
2018-11-11T07:37:45.273Z,12.50
2018-11-11T07:40:16.334Z,12.50
2018-11-11T07:42:46.500Z,12.50
2018-11-11T07:45:16.613Z,12.50
2018-11-11T07:47:46.649Z,12.50
2018-11-11T07:50:17.818Z,12.50
2018-11-11T07:52:47.778Z,12.60
2018-11-11T07:55:17.916Z,12.60
2018-11-11T07:57:48.053Z,12.60
2018-11-11T08:00:17.937Z,12.60
2018-11-11T08:02:47.855Z,12.70
2018-11-11T08:05:18.053Z,12.70
2018-11-11T08:07:48.458Z,12.70
2018-11-11T08:10:29.008Z,12.70
2018-11-11T08:12:59.012Z,12.80
2018-11-11T08:15:29.187Z,12.70
2018-11-11T08:17:59.227Z,12.80
2018-11-11T08:20:29.308Z,12.90
2018-11-11T08:22:59.353Z,12.90
2018-11-11T08:25:29.525Z,12.90
2018-11-11T08:27:59.823Z,13.00
2018-11-11T08:30:29.672Z,13.00
2018-11-11T08:32:59.538Z,13.00
2018-11-11T08:35:29.512Z,13.00
2018-11-11T08:37:59.523Z,13.00
2018-11-11T08:40:29.591Z,13.00
2018-11-11T08:42:59.705Z,13.00
2018-11-11T08:45:30.513Z,13.00
2018-11-11T08:48:01.493Z,13.00
2018-11-11T08:50:31.605Z,13.00
2018-11-11T08:53:01.699Z,13.00
2018-11-11T08:55:31.918Z,12.90
2018-11-11T08:58:02.269Z,12.90
2018-11-11T09:00:32.518Z,12.90
2018-11-11T09:03:02.853Z,12.90
2018-11-11T09:05:33.623Z,12.90
2018-11-11T09:08:03.893Z,12.90
2018-11-11T09:10:34.187Z,13.00
2018-11-11T09:13:04.297Z,13.00
2018-11-11T09:15:34.382Z,13.00
2018-11-11T09:18:04.583Z,13.00
2018-11-11T09:20:34.522Z,13.10
2018-11-11T09:23:04.673Z,13.10
2018-11-11T09:25:35.113Z,13.10
2018-11-11T09:28:05.553Z,13.00
2018-11-11T09:30:35.751Z,13.10
2018-11-11T09:33:06.275Z,13.10
2018-11-11T09:35:36.528Z,13.20
2018-11-11T09:38:07.191Z,13.10
2018-11-11T09:40:37.445Z,13.20
2018-11-11T09:43:08.278Z,13.20
2018-11-11T09:45:38.671Z,13.20
2018-11-11T09:48:08.961Z,13.30
2018-11-11T09:50:39.164Z,13.30
2018-11-11T09:53:09.233Z,13.30
2018-11-11T09:55:39.467Z,13.20
2018-11-11T09:58:09.933Z,13.20
2018-11-11T10:00:40.543Z,13.20
2018-11-11T10:03:15.508Z,13.20
2018-11-11T10:05:50.692Z,13.30
2018-11-11T10:08:38.558Z,13.30
2018-11-11T10:11:12.468Z,13.30
2018-11-11T10:13:47.812Z,13.30
2018-11-11T10:16:25.358Z,13.30
2018-11-11T10:19:58.706Z,13.40
2018-11-11T10:22:37.183Z,13.40
2018-11-11T10:25:12.833Z,13.40
2018-11-11T10:27:50.568Z,13.40
2018-11-11T10:30:27.743Z,13.30
2018-11-11T10:49:15.637Z,16.50
2018-11-11T10:51:45.843Z,15.60
2018-11-11T10:54:16.364Z,14.30
2018-11-11T10:56:46.950Z,14.00
2018-11-11T10:59:16.838Z,13.80
2018-11-11T11:01:51.593Z,13.70
2018-11-11T11:04:21.493Z,13.70
2018-11-11T11:06:56.342Z,13.80
2018-11-11T11:09:26.308Z,13.80
2018-11-11T11:11:56.170Z,13.80
2018-11-11T11:14:26.068Z,13.90
2018-11-11T11:16:55.908Z,14.00
2018-11-11T11:19:26.443Z,14.00
2018-11-11T11:21:56.392Z,14.00
2018-11-11T11:24:26.228Z,14.10
2018-11-11T11:26:56.043Z,14.00
2018-11-11T11:29:26.413Z,14.00
2018-11-11T11:31:57.049Z,13.90
2018-11-11T11:34:27.119Z,13.90
2018-11-11T11:36:57.063Z,13.90
2018-11-11T11:39:26.939Z,13.80
2018-11-11T11:41:57.883Z,13.80
2018-11-11T11:44:27.956Z,13.70
2018-11-11T11:46:57.988Z,13.70
2018-11-11T11:49:27.930Z,13.60
2018-11-11T11:51:57.978Z,13.60
2018-11-11T11:54:27.999Z,13.60
2018-11-11T11:56:57.854Z,13.50
2018-11-11T11:59:27.948Z,13.60
2018-11-11T12:01:58.023Z,13.70
2018-11-11T12:04:28.084Z,13.90
2018-11-11T12:06:58.259Z,14.00
2018-11-11T12:09:28.270Z,14.00
2018-11-11T12:11:58.504Z,14.00
2018-11-11T12:14:28.568Z,14.00
2018-11-11T12:16:58.699Z,14.00
2018-11-11T12:19:28.849Z,14.00
2018-11-11T12:21:58.905Z,13.90
2018-11-11T12:24:28.923Z,13.90
2018-11-11T12:26:58.872Z,13.90
2018-11-11T12:29:29.513Z,13.80
2018-11-11T12:31:59.566Z,13.80
2018-11-11T12:34:29.783Z,13.90
2018-11-11T12:36:59.843Z,13.90
2018-11-11T12:39:29.895Z,13.90
2018-11-11T12:41:59.837Z,13.80
2018-11-11T12:44:29.894Z,13.80
2018-11-11T12:47:00.059Z,13.80
2018-11-11T12:49:30.857Z,13.80
2018-11-11T12:52:01.192Z,13.70
2018-11-11T12:54:31.422Z,13.80
2018-11-11T12:57:01.638Z,13.90
2018-11-11T12:59:32.149Z,14.00
2018-11-11T13:02:02.224Z,14.00
2018-11-11T13:04:33.076Z,14.10
2018-11-11T13:07:03.270Z,14.10
2018-11-11T13:09:33.593Z,14.10
2018-11-11T13:12:04.006Z,14.00
2018-11-11T13:14:34.534Z,14.10
2018-11-11T13:17:05.753Z,14.20
2018-11-11T13:19:36.331Z,14.20
2018-11-11T13:22:06.734Z,14.40
2018-11-11T13:24:37.178Z,14.40
2018-11-11T13:27:08.549Z,14.40
2018-11-11T13:29:38.869Z,14.40
2018-11-11T13:32:09.574Z,14.40
2018-11-11T13:34:39.796Z,14.50
2018-11-11T13:37:09.954Z,14.50
2018-11-11T13:39:39.852Z,14.60
2018-11-11T13:42:09.948Z,14.60
2018-11-11T13:44:40.063Z,14.70
2018-11-11T13:47:09.993Z,14.60
2018-11-11T13:49:40.093Z,14.50
2018-11-11T13:52:10.213Z,14.50
2018-11-11T13:54:40.173Z,14.50
2018-11-11T13:57:10.308Z,14.50
2018-11-11T13:59:40.347Z,14.50
2018-11-11T14:02:10.277Z,14.40
2018-11-11T14:04:40.404Z,14.50
2018-11-11T14:07:10.515Z,14.50
2018-11-11T14:09:40.575Z,14.40
2018-11-11T14:12:10.585Z,14.40
2018-11-11T14:14:40.603Z,14.40
2018-11-11T14:17:10.573Z,14.40
2018-11-11T14:19:40.944Z,14.30
2018-11-11T14:22:10.925Z,14.30
2018-11-11T14:24:41.100Z,14.20
2018-11-11T14:27:11.023Z,14.30
2018-11-11T14:29:41.074Z,14.30
2018-11-11T14:32:11.030Z,14.30
2018-11-11T14:34:41.177Z,14.40
2018-11-11T14:37:11.168Z,14.40
2018-11-11T14:39:41.190Z,14.40
2018-11-11T14:42:11.288Z,14.50
2018-11-11T14:44:41.463Z,14.50
2018-11-11T14:47:11.428Z,14.50
2018-11-11T14:49:42.188Z,14.50
2018-11-11T14:52:13.264Z,14.40
2018-11-11T14:54:43.464Z,14.40
2018-11-11T14:57:13.654Z,14.30
2018-11-11T14:59:44.069Z,14.30
2018-11-11T15:02:14.158Z,14.20
2018-11-11T15:04:44.138Z,14.20
2018-11-11T15:07:14.619Z,14.10
2018-11-11T15:09:44.950Z,14.10
2018-11-11T15:12:15.014Z,14.20
2018-11-11T15:14:45.133Z,14.20
2018-11-11T15:17:14.998Z,14.10
2018-11-11T15:19:45.319Z,14.10
2018-11-11T15:22:15.350Z,14.10
2018-11-11T15:24:45.593Z,14.10
2018-11-11T15:27:15.590Z,14.00
2018-11-11T15:29:45.865Z,14.00
2018-11-11T15:32:15.879Z,14.00
2018-11-11T15:34:46.163Z,14.00
2018-11-11T15:37:16.393Z,14.00
2018-11-11T15:39:46.589Z,13.90
2018-11-11T15:42:16.823Z,14.00
2018-11-11T15:44:46.969Z,14.00
2018-11-11T15:47:16.967Z,14.10
2018-11-11T15:49:47.103Z,14.00
2018-11-11T15:52:17.231Z,14.00
2018-11-11T15:54:47.198Z,14.10
2018-11-11T15:57:17.159Z,14.10
2018-11-11T15:59:51.133Z,14.10
2018-11-11T16:02:21.098Z,14.20
2018-11-11T16:04:51.218Z,14.20
2018-11-11T16:07:21.214Z,14.10
2018-11-11T16:09:51.188Z,14.10
2018-11-11T16:12:21.203Z,14.20
2018-11-11T16:14:51.108Z,14.30
2018-11-11T16:17:21.093Z,14.30
2018-11-11T16:19:51.507Z,14.30
2018-11-11T16:22:21.373Z,14.20
2018-11-11T16:24:51.358Z,14.10
2018-11-11T16:27:21.263Z,14.10
2018-11-11T16:29:51.339Z,13.90
2018-11-11T16:32:21.490Z,14.00
2018-11-11T16:34:51.518Z,14.00
2018-11-11T16:37:21.660Z,14.00
2018-11-11T16:39:51.816Z,14.00
2018-11-11T16:42:21.873Z,14.00
2018-11-11T16:44:52.590Z,14.00
2018-11-11T16:47:22.749Z,14.00
2018-11-11T16:49:52.589Z,14.00
2018-11-11T16:52:22.734Z,13.90
2018-11-11T16:54:52.748Z,13.90
2018-11-11T16:57:22.880Z,13.80
2018-11-11T16:59:52.753Z,13.90
2018-11-11T17:02:22.848Z,13.90
2018-11-11T17:04:52.898Z,13.90
2018-11-11T17:07:22.863Z,13.90
2018-11-11T17:09:53.135Z,13.90
2018-11-11T17:12:23.098Z,13.90
2018-11-11T17:14:53.094Z,13.90
2018-11-11T17:17:23.088Z,13.90
2018-11-11T17:19:53.247Z,13.90
2018-11-11T17:22:23.486Z,13.90
2018-11-11T17:24:53.507Z,13.90
2018-11-11T17:27:23.588Z,14.00
2018-11-11T17:29:53.788Z,14.00
2018-11-11T17:32:24.170Z,13.80
2018-11-11T17:34:54.510Z,13.80
2018-11-11T17:37:24.690Z,13.80
2018-11-11T17:39:55.309Z,13.80
2018-11-11T17:42:35.320Z,13.90
2018-11-11T17:45:11.054Z,13.90
2018-11-11T17:47:53.483Z,13.80
2018-11-11T17:54:04.499Z,13.80
2018-11-11T17:56:37.963Z,13.80
2018-11-11T17:59:08.621Z,13.80
2018-11-11T18:01:38.916Z,13.80
2018-11-11T18:04:09.282Z,13.80
2018-11-11T18:06:49.684Z,13.80
2018-11-11T18:09:24.754Z,13.80
2018-11-11T18:12:06.648Z,13.80
2018-11-11T18:14:37.994Z,13.80
2018-11-11T18:17:15.216Z,13.80
2018-11-11T18:19:53.148Z,13.80
2018-11-11T18:22:26.125Z,13.80
2018-11-11T18:25:04.390Z,13.80
2018-11-11T18:27:36.195Z,13.70
2018-11-11T18:30:17.203Z,13.70
2018-11-11T18:32:51.909Z,13.60
2018-11-11T18:35:24.995Z,13.50
2018-11-11T18:37:57.003Z,13.40
2018-11-11T18:40:33.093Z,13.40
2018-11-11T18:43:04.946Z,13.40
2018-11-11T18:45:36.768Z,13.40
2018-11-11T18:48:08.536Z,13.40
2018-11-11T18:50:40.401Z,13.40
2018-11-11T18:53:20.065Z,13.40
2018-11-11T18:55:50.078Z,13.50
2018-11-11T18:58:21.685Z,13.60
2018-11-11T19:00:54.489Z,13.60
2018-11-11T19:03:25.485Z,13.50
2018-11-11T19:05:56.263Z,13.40
2018-11-11T19:08:27.754Z,13.30
2018-11-11T19:10:59.967Z,13.40
2018-11-11T19:13:32.187Z,13.40
2018-11-11T19:16:10.279Z,13.50
2018-11-11T19:18:40.986Z,13.50
2018-11-11T19:21:17.625Z,13.50
2018-11-11T19:23:50.201Z,13.50
2018-11-11T19:26:28.313Z,13.60
2018-11-11T19:29:01.172Z,13.60
2018-11-11T19:31:48.708Z,13.60
2018-11-11T19:34:22.532Z,13.70
2018-11-11T19:36:57.954Z,13.70
2018-11-11T19:39:34.722Z,13.60
2018-11-11T19:42:07.030Z,13.60
2018-11-11T19:44:52.591Z,13.50
2018-11-11T19:47:34.611Z,13.40
2018-11-11T19:50:08.534Z,13.50
2018-11-11T19:52:48.873Z,13.60
2018-11-11T19:55:21.177Z,13.60
2018-11-11T19:57:54.414Z,13.50
2018-11-11T20:00:27.791Z,13.40
2018-11-11T20:03:06.797Z,13.30
2018-11-11T20:09:32.584Z,13.50
2018-11-11T20:12:11.721Z,13.50
2018-11-11T20:14:45.875Z,13.60
2018-11-11T20:17:22.030Z,13.50
2018-11-11T20:19:55.374Z,13.60
2018-11-11T20:22:28.958Z,13.60
2018-11-11T20:25:08.672Z,13.50
2018-11-11T20:27:43.014Z,13.50
2018-11-11T20:30:19.496Z,13.50
2018-11-11T20:32:53.702Z,13.50
2018-11-11T20:35:28.053Z,13.40
2018-11-11T20:38:00.230Z,13.40
2018-11-11T20:40:39.966Z,13.40
2018-11-11T20:43:15.952Z,13.40
2018-11-11T20:45:46.996Z,13.30
2018-11-11T20:48:18.301Z,13.30
2018-11-11T20:50:49.489Z,13.20
2018-11-11T20:53:22.615Z,13.20
2018-11-11T20:55:54.369Z,13.20
2018-11-11T20:58:25.802Z,13.30
2018-11-11T21:00:56.387Z,13.30
2018-11-11T21:03:29.921Z,13.30
2018-11-11T21:06:01.498Z,13.20
2018-11-11T21:08:34.806Z,13.30
2018-11-11T21:11:06.983Z,13.20
2018-11-11T21:13:38.504Z,13.30
2018-11-11T21:16:10.139Z,13.30
2018-11-11T21:18:42.174Z,13.30
2018-11-11T21:21:14.004Z,13.30
2018-11-11T21:23:47.083Z,13.30
2018-11-11T21:26:40.553Z,13.30
2018-11-11T21:29:11.118Z,13.40
2018-11-11T21:31:43.909Z,13.40
2018-11-11T21:34:16.263Z,13.40
2018-11-11T21:36:47.330Z,13.40
2018-11-11T21:39:17.841Z,13.30
2018-11-11T21:41:49.683Z,13.30
2018-11-11T21:44:21.424Z,13.40
2018-11-11T21:46:52.189Z,13.40
2018-11-11T21:49:22.209Z,13.40
2018-11-11T21:51:54.187Z,13.40
2018-11-11T21:54:24.735Z,13.40
2018-11-11T21:56:54.653Z,13.30
2018-11-11T21:59:24.599Z,13.40
2018-11-11T22:01:54.858Z,13.30
2018-11-11T22:04:24.939Z,13.30
2018-11-11T22:06:56.078Z,13.30
2018-11-11T22:09:27.044Z,13.40
2018-11-11T22:11:59.850Z,13.40
2018-11-11T22:14:30.198Z,13.30
2018-11-11T22:17:00.229Z,13.30
2018-11-11T22:19:30.428Z,13.20
2018-11-11T22:22:00.783Z,13.20
2018-11-11T22:24:31.289Z,13.20
2018-11-11T22:27:02.563Z,13.30
2018-11-11T22:29:34.082Z,13.30
2018-11-11T22:32:04.386Z,13.30
2018-11-11T22:34:35.174Z,13.30
2018-11-11T22:37:05.972Z,13.20
2018-11-11T22:39:38.563Z,13.20
2018-11-11T22:42:09.980Z,13.20
2018-11-11T22:44:40.868Z,13.20
2018-11-11T22:47:11.301Z,13.20
2018-11-11T22:49:41.853Z,13.20
2018-11-11T22:52:13.918Z,13.30
2018-11-11T22:54:45.203Z,13.30
2018-11-11T22:57:16.932Z,13.30
2018-11-11T22:59:47.173Z,13.30
2018-11-11T23:02:17.718Z,13.20
2018-11-11T23:04:48.643Z,13.20
2018-11-11T23:07:19.313Z,13.20
2018-11-11T23:09:50.357Z,13.20
2018-11-11T23:12:20.807Z,13.20
2018-11-11T23:14:51.498Z,13.20
2018-11-11T23:17:21.595Z,13.20
2018-11-11T23:19:52.171Z,13.20
2018-11-11T23:22:22.043Z,13.20
2018-11-11T23:24:52.034Z,13.20
2018-11-11T23:27:22.013Z,13.20
2018-11-11T23:29:51.858Z,13.20
2018-11-11T23:32:21.693Z,13.20
2018-11-11T23:34:51.968Z,13.10
2018-11-11T23:37:22.253Z,13.10
2018-11-11T23:39:52.348Z,13.10
2018-11-11T23:42:22.433Z,13.10
2018-11-11T23:44:52.713Z,13.10
2018-11-11T23:47:22.992Z,13.10
2018-11-11T23:49:53.178Z,13.10
2018-11-11T23:52:23.208Z,13.20
2018-11-11T23:54:53.453Z,13.20
2018-11-11T23:57:23.635Z,13.20
2018-11-11T23:59:53.808Z,13.20
